KAUG

Augusta State Airport

Augusta, Maine, USA
KAUG 192326Z 2000/2024 19006KT P6SM SCT250 FM201000 20008KT P6SM OVC040 FM201400 22013KT P6SM BKN040 FM201900 24007KT P6SM SCT040
Issued Valid From Valid To
Oct-19 @ 23:26 UTC
(4 hours ago)
Oct-20 @ 00:00 UTC
(3 hours ago)
Oct-21 @ 00:00 UTC
(in 21 hours)
Oct-20 @ 00:00 to Oct-20 @ 10:00
KAUG 192326Z 2000/2024 19006KT P6SM SCT250
Wind Visibility Clouds
190° at 6 knots Greater than 6 miles
  • Scattered at 25,000' AGL
From Oct-20 @ 10:00 to Oct-20 @ 14:00
FM201000 20008KT P6SM OVC040
Wind Visibility Clouds
200° at 8 knots Greater than 6 miles
  • Overcast at 4,000' AGL
From Oct-20 @ 14:00 to Oct-20 @ 19:00
FM201400 22013KT P6SM BKN040
Wind Visibility Clouds
220° at 13 knots Greater than 6 miles
  • Broken at 4,000' AGL
From Oct-20 @ 19:00 to Oct-21 @ 00:00
FM201900 24007KT P6SM SCT040
Wind Visibility Clouds
240° at 7 knots Greater than 6 miles
  • Scattered at 4,000' AGL
KAUG 192326Z 2000/2024 19006KT P6SM SCT250 FM201000 20008KT P6SM OVC040 FM201400 22013KT P6SM BKN040 FM201900 24007KT P6SM SCT040
Issued Oct-19 @ 23:26 UTC
(4 hours ago)
Valid From Oct-20 @ 00:00 UTC
(3 hours ago)
Valid To Oct-21 @ 00:00 UTC
(in 21 hours)
Oct-20 @ 00:00 - Oct-20 @ 10:00
Wind Visibility
190° at 6 knots Greater than 6 miles
Clouds
  • Scattered at 25,000' AGL
From Oct-20 @ 10:00 - Oct-20 @ 14:00
Wind Visibility
200° at 8 knots Greater than 6 miles
Clouds
  • Overcast at 4,000' AGL
From Oct-20 @ 14:00 - Oct-20 @ 19:00
Wind Visibility
220° at 13 knots Greater than 6 miles
Clouds
  • Broken at 4,000' AGL
From Oct-20 @ 19:00 - Oct-21 @ 00:00
Wind Visibility
240° at 7 knots Greater than 6 miles
Clouds
  • Scattered at 4,000' AGL